sensor_id;sensor_type;location;lat;lon;timestamp;P1;durP1;ratioP1;P2;durP2;ratioP2
17382;SDS011;8809;51.892;8.384;2022-11-15T00:00:13;4.55;;;3.63;;
17382;SDS011;8809;51.892;8.384;2022-11-15T00:02:40;5.50;;;4.03;;
17382;SDS011;8809;51.892;8.384;2022-11-15T00:05:07;4.95;;;3.92;;
17382;SDS011;8809;51.892;8.384;2022-11-15T00:07:36;5.40;;;3.80;;
17382;SDS011;8809;51.892;8.384;2022-11-15T00:10:06;5.55;;;4.28;;
17382;SDS011;8809;51.892;8.384;2022-11-15T00:12:41;5.85;;;4.63;;
17382;SDS011;8809;51.892;8.384;2022-11-15T00:15:10;5.30;;;4.20;;
17382;SDS011;8809;51.892;8.384;2022-11-15T00:17:37;4.53;;;4.00;;
17382;SDS011;8809;51.892;8.384;2022-11-15T00:20:12;5.50;;;4.20;;
17382;SDS011;8809;51.892;8.384;2022-11-15T00:22:41;5.18;;;4.20;;
17382;SDS011;8809;51.892;8.384;2022-11-15T00:25:11;5.28;;;4.00;;
17382;SDS011;8809;51.892;8.384;2022-11-15T00:27:39;4.07;;;3.65;;
17382;SDS011;8809;51.892;8.384;2022-11-15T00:30:15;5.03;;;3.97;;
17382;SDS011;8809;51.892;8.384;2022-11-15T00:32:42;4.93;;;4.00;;
17382;SDS011;8809;51.892;8.384;2022-11-15T00:35:09;5.63;;;4.07;;
17382;SDS011;8809;51.892;8.384;2022-11-15T00:37:36;4.88;;;3.72;;
17382;SDS011;8809;51.892;8.384;2022-11-15T00:40:15;3.75;;;3.22;;
17382;SDS011;8809;51.892;8.384;2022-11-15T00:42:42;3.72;;;3.28;;
17382;SDS011;8809;51.892;8.384;2022-11-15T00:45:09;3.80;;;3.03;;
17382;SDS011;8809;51.892;8.384;2022-11-15T00:47:36;3.10;;;2.80;;
17382;SDS011;8809;51.892;8.384;2022-11-15T00:50:13;3.88;;;3.22;;
17382;SDS011;8809;51.892;8.384;2022-11-15T00:52:40;3.70;;;3.13;;
17382;SDS011;8809;51.892;8.384;2022-11-15T00:55:08;3.67;;;3.08;;
17382;SDS011;8809;51.892;8.384;2022-11-15T00:57:43;3.20;;;2.88;;
17382;SDS011;8809;51.892;8.384;2022-11-15T01:00:14;3.50;;;2.63;;
17382;SDS011;8809;51.892;8.384;2022-11-15T01:02:41;3.30;;;2.90;;
17382;SDS011;8809;51.892;8.384;2022-11-15T01:05:08;4.07;;;3.67;;
17382;SDS011;8809;51.892;8.384;2022-11-15T01:07:35;3.88;;;3.20;;
17382;SDS011;8809;51.892;8.384;2022-11-15T01:10:06;3.25;;;2.92;;
17382;SDS011;8809;51.892;8.384;2022-11-15T01:12:41;4.53;;;3.60;;
17382;SDS011;8809;51.892;8.384;2022-11-15T01:15:10;4.20;;;3.58;;
17382;SDS011;8809;51.892;8.384;2022-11-15T01:17:37;3.28;;;2.97;;
17382;SDS011;8809;51.892;8.384;2022-11-15T01:20:14;4.10;;;3.33;;
17382;SDS011;8809;51.892;8.384;2022-11-15T01:22:41;4.20;;;3.67;;
17382;SDS011;8809;51.892;8.384;2022-11-15T01:25:08;3.75;;;3.20;;
17382;SDS011;8809;51.892;8.384;2022-11-15T01:27:35;3.67;;;3.13;;
17382;SDS011;8809;51.892;8.384;2022-11-15T01:30:16;5.80;;;4.05;;
17382;SDS011;8809;51.892;8.384;2022-11-15T01:32:43;4.93;;;3.80;;
17382;SDS011;8809;51.892;8.384;2022-11-15T01:35:11;4.78;;;3.92;;
17382;SDS011;8809;51.892;8.384;2022-11-15T01:37:38;4.35;;;3.78;;
17382;SDS011;8809;51.892;8.384;2022-11-15T01:40:13;4.20;;;3.35;;
17382;SDS011;8809;51.892;8.384;2022-11-15T01:42:40;3.63;;;3.10;;
17382;SDS011;8809;51.892;8.384;2022-11-15T01:45:07;4.10;;;3.20;;
17382;SDS011;8809;51.892;8.384;2022-11-15T01:47:41;4.53;;;3.70;;
17382;SDS011;8809;51.892;8.384;2022-11-15T01:50:15;5.95;;;3.92;;
17382;SDS011;8809;51.892;8.384;2022-11-15T01:52:44;5.03;;;3.90;;
17382;SDS011;8809;51.892;8.384;2022-11-15T01:55:12;5.43;;;4.53;;
17382;SDS011;8809;51.892;8.384;2022-11-15T01:57:42;5.13;;;3.88;;
17382;SDS011;8809;51.892;8.384;2022-11-15T02:00:15;4.25;;;3.60;;
17382;SDS011;8809;51.892;8.384;2022-11-15T02:02:42;4.47;;;3.30;;
17382;SDS011;8809;51.892;8.384;2022-11-15T02:05:09;4.82;;;3.38;;
17382;SDS011;8809;51.892;8.384;2022-11-15T02:07:36;3.75;;;3.10;;
17382;SDS011;8809;51.892;8.384;2022-11-15T02:10:13;3.42;;;2.90;;
17382;SDS011;8809;51.892;8.384;2022-11-15T02:12:44;4.78;;;3.65;;
17382;SDS011;8809;51.892;8.384;2022-11-15T02:15:14;4.05;;;3.47;;
17382;SDS011;8809;51.892;8.384;2022-11-15T02:17:46;4.20;;;3.80;;
17382;SDS011;8809;51.892;8.384;2022-11-15T02:23:31;4.10;;;3.70;;
17382;SDS011;8809;51.892;8.384;2022-11-15T02:26:27;4.28;;;3.35;;
17382;SDS011;8809;51.892;8.384;2022-11-15T02:29:20;4.00;;;3.30;;
17382;SDS011;8809;51.892;8.384;2022-11-15T02:32:03;4.97;;;3.85;;
17382;SDS011;8809;51.892;8.384;2022-11-15T02:34:38;5.15;;;4.05;;
17382;SDS011;8809;51.892;8.384;2022-11-15T02:37:18;4.13;;;3.55;;
17382;SDS011;8809;51.892;8.384;2022-11-15T02:39:56;4.65;;;3.60;;
17382;SDS011;8809;51.892;8.384;2022-11-15T02:42:41;5.38;;;3.95;;
17382;SDS011;8809;51.892;8.384;2022-11-15T02:45:32;6.38;;;4.35;;
17382;SDS011;8809;51.892;8.384;2022-11-15T02:48:04;4.82;;;4.00;;
17382;SDS011;8809;51.892;8.384;2022-11-15T02:50:33;5.40;;;3.70;;
17382;SDS011;8809;51.892;8.384;2022-11-15T02:53:01;4.25;;;3.28;;
17382;SDS011;8809;51.892;8.384;2022-11-15T02:55:29;3.85;;;3.15;;
17382;SDS011;8809;51.892;8.384;2022-11-15T02:58:01;3.60;;;3.30;;
17382;SDS011;8809;51.892;8.384;2022-11-15T03:00:38;4.53;;;3.35;;
17382;SDS011;8809;51.892;8.384;2022-11-15T03:03:21;4.10;;;3.17;;
17382;SDS011;8809;51.892;8.384;2022-11-15T03:06:06;4.55;;;3.30;;
17382;SDS011;8809;51.892;8.384;2022-11-15T03:08:44;4.88;;;3.55;;
17382;SDS011;8809;51.892;8.384;2022-11-15T03:11:20;4.30;;;3.40;;
17382;SDS011;8809;51.892;8.384;2022-11-15T03:13:51;4.35;;;3.28;;
17382;SDS011;8809;51.892;8.384;2022-11-15T03:16:24;4.57;;;4.00;;
17382;SDS011;8809;51.892;8.384;2022-11-15T03:18:58;4.22;;;3.65;;
17382;SDS011;8809;51.892;8.384;2022-11-15T03:21:31;4.47;;;3.70;;
17382;SDS011;8809;51.892;8.384;2022-11-15T03:24:00;3.60;;;3.08;;
17382;SDS011;8809;51.892;8.384;2022-11-15T03:26:31;3.40;;;3.10;;
17382;SDS011;8809;51.892;8.384;2022-11-15T03:29:01;4.40;;;2.90;;
17382;SDS011;8809;51.892;8.384;2022-11-15T03:31:32;4.80;;;3.28;;
17382;SDS011;8809;51.892;8.384;2022-11-15T03:34:18;4.47;;;3.55;;
17382;SDS011;8809;51.892;8.384;2022-11-15T03:36:49;3.78;;;3.40;;
17382;SDS011;8809;51.892;8.384;2022-11-15T03:39:18;4.50;;;4.10;;
17382;SDS011;8809;51.892;8.384;2022-11-15T03:41:47;5.43;;;4.13;;
17382;SDS011;8809;51.892;8.384;2022-11-15T03:44:20;4.55;;;4.07;;
17382;SDS011;8809;51.892;8.384;2022-11-15T03:46:58;4.72;;;4.03;;
17382;SDS011;8809;51.892;8.384;2022-11-15T03:49:34;4.25;;;3.85;;
17382;SDS011;8809;51.892;8.384;2022-11-15T03:52:03;4.68;;;3.80;;
17382;SDS011;8809;51.892;8.384;2022-11-15T03:54:31;4.65;;;3.42;;
17382;SDS011;8809;51.892;8.384;2022-11-15T03:56:57;4.85;;;3.50;;
17382;SDS011;8809;51.892;8.384;2022-11-15T03:59:24;4.10;;;3.60;;
17382;SDS011;8809;51.892;8.384;2022-11-15T04:01:51;4.72;;;3.50;;
17382;SDS011;8809;51.892;8.384;2022-11-15T04:04:18;3.25;;;2.95;;
17382;SDS011;8809;51.892;8.384;2022-11-15T04:06:46;3.70;;;3.30;;
17382;SDS011;8809;51.892;8.384;2022-11-15T04:09:13;4.30;;;3.63;;
17382;SDS011;8809;51.892;8.384;2022-11-15T04:11:40;4.13;;;3.35;;
17382;SDS011;8809;51.892;8.384;2022-11-15T04:14:07;4.00;;;3.03;;
17382;SDS011;8809;51.892;8.384;2022-11-15T04:16:34;3.60;;;3.00;;
17382;SDS011;8809;51.892;8.384;2022-11-15T04:19:00;4.85;;;3.45;;
17382;SDS011;8809;51.892;8.384;2022-11-15T04:21:44;3.85;;;3.03;;
17382;SDS011;8809;51.892;8.384;2022-11-15T04:24:30;3.72;;;2.80;;
17382;SDS011;8809;51.892;8.384;2022-11-15T04:26:57;2.83;;;2.60;;
17382;SDS011;8809;51.892;8.384;2022-11-15T04:29:24;4.05;;;3.00;;
17382;SDS011;8809;51.892;8.384;2022-11-15T04:32:00;3.72;;;3.13;;
17382;SDS011;8809;51.892;8.384;2022-11-15T04:34:27;3.50;;;3.00;;
17382;SDS011;8809;51.892;8.384;2022-11-15T04:36:54;3.13;;;2.80;;
17382;SDS011;8809;51.892;8.384;2022-11-15T04:39:48;3.72;;;3.33;;
17382;SDS011;8809;51.892;8.384;2022-11-15T04:42:15;4.15;;;3.45;;
17382;SDS011;8809;51.892;8.384;2022-11-15T04:44:42;3.30;;;3.00;;
17382;SDS011;8809;51.892;8.384;2022-11-15T04:47:08;4.32;;;3.30;;
17382;SDS011;8809;51.892;8.384;2022-11-15T04:49:35;3.55;;;3.00;;
17382;SDS011;8809;51.892;8.384;2022-11-15T04:52:02;4.22;;;3.00;;
17382;SDS011;8809;51.892;8.384;2022-11-15T04:54:29;4.00;;;3.17;;
17382;SDS011;8809;51.892;8.384;2022-11-15T04:56:57;3.58;;;3.08;;
17382;SDS011;8809;51.892;8.384;2022-11-15T04:59:24;5.63;;;4.05;;
17382;SDS011;8809;51.892;8.384;2022-11-15T05:01:51;4.32;;;3.45;;
17382;SDS011;8809;51.892;8.384;2022-11-15T05:04:18;5.32;;;3.45;;
17382;SDS011;8809;51.892;8.384;2022-11-15T05:06:44;6.28;;;4.63;;
17382;SDS011;8809;51.892;8.384;2022-11-15T05:09:12;4.18;;;3.67;;
17382;SDS011;8809;51.892;8.384;2022-11-15T05:11:39;4.40;;;3.83;;
17382;SDS011;8809;51.892;8.384;2022-11-15T05:14:07;5.28;;;3.83;;
17382;SDS011;8809;51.892;8.384;2022-11-15T05:16:34;4.18;;;3.55;;
17382;SDS011;8809;51.892;8.384;2022-11-15T05:19:01;5.35;;;4.30;;
17382;SDS011;8809;51.892;8.384;2022-11-15T05:21:28;5.35;;;4.35;;
17382;SDS011;8809;51.892;8.384;2022-11-15T05:23:55;7.25;;;5.13;;
17382;SDS011;8809;51.892;8.384;2022-11-15T05:26:22;7.10;;;5.15;;
17382;SDS011;8809;51.892;8.384;2022-11-15T05:28:52;6.38;;;5.18;;
17382;SDS011;8809;51.892;8.384;2022-11-15T05:31:21;5.68;;;4.88;;
17382;SDS011;8809;51.892;8.384;2022-11-15T05:33:48;6.70;;;4.75;;
17382;SDS011;8809;51.892;8.384;2022-11-15T05:36:17;5.25;;;4.55;;
17382;SDS011;8809;51.892;8.384;2022-11-15T05:38:48;5.00;;;4.50;;
17382;SDS011;8809;51.892;8.384;2022-11-15T05:41:17;5.10;;;4.55;;
17382;SDS011;8809;51.892;8.384;2022-11-15T05:43:47;4.82;;;4.05;;
17382;SDS011;8809;51.892;8.384;2022-11-15T05:46:16;4.95;;;4.00;;
17382;SDS011;8809;51.892;8.384;2022-11-15T05:48:47;4.53;;;3.90;;
17382;SDS011;8809;51.892;8.384;2022-11-15T05:51:16;4.70;;;4.15;;
17382;SDS011;8809;51.892;8.384;2022-11-15T05:53:45;6.93;;;4.97;;
17382;SDS011;8809;51.892;8.384;2022-11-15T05:56:13;6.18;;;5.25;;
17382;SDS011;8809;51.892;8.384;2022-11-15T05:58:40;5.57;;;4.97;;
17382;SDS011;8809;51.892;8.384;2022-11-15T06:01:09;5.43;;;4.35;;
17382;SDS011;8809;51.892;8.384;2022-11-15T06:03:36;6.30;;;4.72;;
17382;SDS011;8809;51.892;8.384;2022-11-15T06:06:04;5.38;;;4.45;;
17382;SDS011;8809;51.892;8.384;2022-11-15T06:08:31;5.90;;;5.10;;
17382;SDS011;8809;51.892;8.384;2022-11-15T06:11:02;6.85;;;5.30;;
17382;SDS011;8809;51.892;8.384;2022-11-15T06:13:30;7.82;;;6.03;;
17382;SDS011;8809;51.892;8.384;2022-11-15T06:15:57;5.78;;;4.90;;
17382;SDS011;8809;51.892;8.384;2022-11-15T06:18:24;5.93;;;4.88;;
17382;SDS011;8809;51.892;8.384;2022-11-15T06:20:51;6.00;;;4.40;;
17382;SDS011;8809;51.892;8.384;2022-11-15T06:23:19;6.45;;;5.13;;
17382;SDS011;8809;51.892;8.384;2022-11-15T06:25:46;5.05;;;4.55;;
17382;SDS011;8809;51.892;8.384;2022-11-15T06:28:13;6.90;;;5.15;;
17382;SDS011;8809;51.892;8.384;2022-11-15T06:30:39;7.20;;;5.80;;
17382;SDS011;8809;51.892;8.384;2022-11-15T06:33:06;6.50;;;5.32;;
17382;SDS011;8809;51.892;8.384;2022-11-15T06:35:35;7.40;;;6.07;;
17382;SDS011;8809;51.892;8.384;2022-11-15T06:38:02;7.82;;;6.25;;
17382;SDS011;8809;51.892;8.384;2022-11-15T06:40:34;9.68;;;7.15;;
17382;SDS011;8809;51.892;8.384;2022-11-15T06:43:01;8.13;;;6.72;;
17382;SDS011;8809;51.892;8.384;2022-11-15T06:45:29;7.53;;;6.13;;
17382;SDS011;8809;51.892;8.384;2022-11-15T06:47:56;8.43;;;6.10;;
17382;SDS011;8809;51.892;8.384;2022-11-15T06:50:24;7.65;;;6.18;;
17382;SDS011;8809;51.892;8.384;2022-11-15T06:52:51;8.55;;;6.70;;
17382;SDS011;8809;51.892;8.384;2022-11-15T06:55:18;7.95;;;6.03;;
17382;SDS011;8809;51.892;8.384;2022-11-15T06:57:50;9.75;;;7.13;;
17382;SDS011;8809;51.892;8.384;2022-11-15T07:00:23;7.65;;;6.25;;
17382;SDS011;8809;51.892;8.384;2022-11-15T07:02:50;7.90;;;6.47;;
17382;SDS011;8809;51.892;8.384;2022-11-15T07:05:17;7.93;;;6.35;;
17382;SDS011;8809;51.892;8.384;2022-11-15T07:07:50;8.35;;;5.70;;
17382;SDS011;8809;51.892;8.384;2022-11-15T07:10:17;7.25;;;5.80;;
17382;SDS011;8809;51.892;8.384;2022-11-15T07:12:46;7.25;;;6.18;;
17382;SDS011;8809;51.892;8.384;2022-11-15T07:15:18;7.93;;;6.32;;
17382;SDS011;8809;51.892;8.384;2022-11-15T07:17:46;7.95;;;6.30;;
17382;SDS011;8809;51.892;8.384;2022-11-15T07:20:19;7.85;;;6.47;;
17382;SDS011;8809;51.892;8.384;2022-11-15T07:22:46;6.22;;;4.97;;
17382;SDS011;8809;51.892;8.384;2022-11-15T07:25:13;6.28;;;4.85;;
17382;SDS011;8809;51.892;8.384;2022-11-15T07:27:40;5.75;;;5.15;;
17382;SDS011;8809;51.892;8.384;2022-11-15T07:30:15;5.47;;;4.40;;
17382;SDS011;8809;51.892;8.384;2022-11-15T07:32:43;5.85;;;4.97;;
17382;SDS011;8809;51.892;8.384;2022-11-15T07:35:10;6.20;;;5.05;;
17382;SDS011;8809;51.892;8.384;2022-11-15T07:37:37;6.47;;;5.35;;
17382;SDS011;8809;51.892;8.384;2022-11-15T07:40:14;5.65;;;4.45;;
17382;SDS011;8809;51.892;8.384;2022-11-15T07:42:41;4.97;;;4.10;;
17382;SDS011;8809;51.892;8.384;2022-11-15T07:45:22;5.25;;;4.70;;
17382;SDS011;8809;51.892;8.384;2022-11-15T07:47:53;7.10;;;5.60;;
17382;SDS011;8809;51.892;8.384;2022-11-15T07:50:21;7.65;;;4.55;;
17382;SDS011;8809;51.892;8.384;2022-11-15T07:52:52;5.13;;;4.07;;
17382;SDS011;8809;51.892;8.384;2022-11-15T07:55:20;4.90;;;3.85;;
17382;SDS011;8809;51.892;8.384;2022-11-15T07:57:47;5.05;;;4.10;;
17382;SDS011;8809;51.892;8.384;2022-11-15T08:00:14;4.35;;;3.60;;
17382;SDS011;8809;51.892;8.384;2022-11-15T08:02:42;3.45;;;3.05;;
17382;SDS011;8809;51.892;8.384;2022-11-15T08:05:10;3.85;;;3.00;;
17382;SDS011;8809;51.892;8.384;2022-11-15T08:07:38;3.97;;;3.50;;
17382;SDS011;8809;51.892;8.384;2022-11-15T08:10:08;4.38;;;3.53;;
17382;SDS011;8809;51.892;8.384;2022-11-15T08:12:39;4.90;;;3.88;;
17382;SDS011;8809;51.892;8.384;2022-11-15T08:15:06;4.95;;;4.10;;
17382;SDS011;8809;51.892;8.384;2022-11-15T08:17:33;4.15;;;3.40;;
17382;SDS011;8809;51.892;8.384;2022-11-15T08:20:00;4.95;;;4.10;;
17382;SDS011;8809;51.892;8.384;2022-11-15T08:22:43;4.95;;;3.60;;
17382;SDS011;8809;51.892;8.384;2022-11-15T08:25:10;5.65;;;4.07;;
17382;SDS011;8809;51.892;8.384;2022-11-15T08:27:38;7.13;;;4.95;;
17382;SDS011;8809;51.892;8.384;2022-11-15T08:30:05;4.32;;;3.78;;
17382;SDS011;8809;51.892;8.384;2022-11-15T08:32:41;5.05;;;4.00;;
17382;SDS011;8809;51.892;8.384;2022-11-15T08:35:08;4.68;;;4.18;;
17382;SDS011;8809;51.892;8.384;2022-11-15T08:37:35;6.30;;;4.93;;
17382;SDS011;8809;51.892;8.384;2022-11-15T08:40:18;5.32;;;4.25;;
17382;SDS011;8809;51.892;8.384;2022-11-15T08:42:45;5.20;;;3.97;;
17382;SDS011;8809;51.892;8.384;2022-11-15T08:45:13;5.47;;;3.42;;
17382;SDS011;8809;51.892;8.384;2022-11-15T08:47:40;4.30;;;3.85;;
17382;SDS011;8809;51.892;8.384;2022-11-15T08:53:03;3.38;;;3.08;;
17382;SDS011;8809;51.892;8.384;2022-11-15T08:55:35;2.85;;;2.58;;
17382;SDS011;8809;51.892;8.384;2022-11-15T08:58:03;4.10;;;3.17;;
17382;SDS011;8809;51.892;8.384;2022-11-15T09:00:30;3.90;;;3.33;;
17382;SDS011;8809;51.892;8.384;2022-11-15T09:02:57;4.65;;;3.30;;
17382;SDS011;8809;51.892;8.384;2022-11-15T09:05:25;5.28;;;3.55;;
17382;SDS011;8809;51.892;8.384;2022-11-15T09:07:52;4.20;;;3.28;;
17382;SDS011;8809;51.892;8.384;2022-11-15T09:10:20;3.03;;;2.72;;
17382;SDS011;8809;51.892;8.384;2022-11-15T09:12:49;3.63;;;2.80;;
17382;SDS011;8809;51.892;8.384;2022-11-15T09:15:16;4.88;;;2.50;;
17382;SDS011;8809;51.892;8.384;2022-11-15T09:17:43;3.20;;;2.42;;
17382;SDS011;8809;51.892;8.384;2022-11-15T09:20:14;3.63;;;2.65;;
17382;SDS011;8809;51.892;8.384;2022-11-15T09:22:41;2.40;;;2.20;;
17382;SDS011;8809;51.892;8.384;2022-11-15T09:25:08;2.97;;;2.30;;
17382;SDS011;8809;51.892;8.384;2022-11-15T09:27:35;2.40;;;2.00;;
17382;SDS011;8809;51.892;8.384;2022-11-15T09:30:16;3.10;;;2.20;;
17382;SDS011;8809;51.892;8.384;2022-11-15T09:32:43;2.50;;;2.05;;
17382;SDS011;8809;51.892;8.384;2022-11-15T09:35:10;2.40;;;2.15;;
17382;SDS011;8809;51.892;8.384;2022-11-15T09:37:36;3.70;;;2.20;;
17382;SDS011;8809;51.892;8.384;2022-11-15T09:40:12;3.15;;;2.15;;
17382;SDS011;8809;51.892;8.384;2022-11-15T09:42:58;2.53;;;2.15;;
17382;SDS011;8809;51.892;8.384;2022-11-15T09:45:37;2.30;;;1.80;;
17382;SDS011;8809;51.892;8.384;2022-11-15T09:51:12;2.75;;;1.88;;
17382;SDS011;8809;51.892;8.384;2022-11-15T09:53:47;2.60;;;2.10;;
17382;SDS011;8809;51.892;8.384;2022-11-15T09:56:20;2.83;;;1.73;;
17382;SDS011;8809;51.892;8.384;2022-11-15T09:58:51;2.85;;;1.90;;
17382;SDS011;8809;51.892;8.384;2022-11-15T10:01:33;1.67;;;1.50;;
17382;SDS011;8809;51.892;8.384;2022-11-15T10:04:07;1.90;;;1.60;;
17382;SDS011;8809;51.892;8.384;2022-11-15T10:06:34;1.73;;;1.38;;
17382;SDS011;8809;51.892;8.384;2022-11-15T10:09:09;3.97;;;1.52;;
17382;SDS011;8809;51.892;8.384;2022-11-15T10:11:42;2.67;;;1.40;;
17382;SDS011;8809;51.892;8.384;2022-11-15T10:14:10;1.60;;;1.40;;
17382;SDS011;8809;51.892;8.384;2022-11-15T10:16:51;2.17;;;1.40;;
17382;SDS011;8809;51.892;8.384;2022-11-15T10:19:50;1.50;;;1.13;;
17382;SDS011;8809;51.892;8.384;2022-11-15T10:22:41;3.13;;;1.40;;
17382;SDS011;8809;51.892;8.384;2022-11-15T10:25:15;2.28;;;1.13;;
17382;SDS011;8809;51.892;8.384;2022-11-15T10:27:45;3.03;;;1.33;;
17382;SDS011;8809;51.892;8.384;2022-11-15T10:30:17;2.45;;;1.50;;
17382;SDS011;8809;51.892;8.384;2022-11-15T10:32:46;2.03;;;1.20;;
17382;SDS011;8809;51.892;8.384;2022-11-15T10:35:22;1.92;;;1.30;;
17382;SDS011;8809;51.892;8.384;2022-11-15T10:37:50;2.22;;;1.42;;
17382;SDS011;8809;51.892;8.384;2022-11-15T10:40:18;3.05;;;1.33;;
17382;SDS011;8809;51.892;8.384;2022-11-15T10:42:47;2.45;;;1.40;;
17382;SDS011;8809;51.892;8.384;2022-11-15T10:45:25;1.95;;;1.30;;
17382;SDS011;8809;51.892;8.384;2022-11-15T10:47:56;1.55;;;1.25;;
17382;SDS011;8809;51.892;8.384;2022-11-15T10:50:49;2.08;;;1.63;;
17382;SDS011;8809;51.892;8.384;2022-11-15T10:53:20;3.72;;;1.30;;
17382;SDS011;8809;51.892;8.384;2022-11-15T10:55:51;1.70;;;1.35;;
17382;SDS011;8809;51.892;8.384;2022-11-15T10:58:21;2.88;;;1.63;;
17382;SDS011;8809;51.892;8.384;2022-11-15T11:00:55;3.17;;;1.95;;
17382;SDS011;8809;51.892;8.384;2022-11-15T11:03:29;1.88;;;1.30;;
17382;SDS011;8809;51.892;8.384;2022-11-15T11:06:03;3.35;;;1.60;;
17382;SDS011;8809;51.892;8.384;2022-11-15T11:08:32;1.90;;;1.50;;
17382;SDS011;8809;51.892;8.384;2022-11-15T11:11:00;1.70;;;1.48;;
17382;SDS011;8809;51.892;8.384;2022-11-15T11:13:29;1.92;;;1.40;;
17382;SDS011;8809;51.892;8.384;2022-11-15T11:15:59;2.30;;;1.80;;
17382;SDS011;8809;51.892;8.384;2022-11-15T11:18:43;2.60;;;1.85;;
17382;SDS011;8809;51.892;8.384;2022-11-15T11:21:20;1.77;;;1.52;;
17382;SDS011;8809;51.892;8.384;2022-11-15T11:23:53;2.50;;;1.67;;
17382;SDS011;8809;51.892;8.384;2022-11-15T11:26:30;1.90;;;1.52;;
17382;SDS011;8809;51.892;8.384;2022-11-15T11:29:09;2.33;;;1.60;;
17382;SDS011;8809;51.892;8.384;2022-11-15T11:31:47;1.75;;;1.58;;
17382;SDS011;8809;51.892;8.384;2022-11-15T11:34:33;2.20;;;1.60;;
17382;SDS011;8809;51.892;8.384;2022-11-15T11:37:12;2.05;;;1.50;;
17382;SDS011;8809;51.892;8.384;2022-11-15T11:39:51;1.95;;;1.48;;
17382;SDS011;8809;51.892;8.384;2022-11-15T11:42:41;2.22;;;1.50;;
17382;SDS011;8809;51.892;8.384;2022-11-15T11:45:21;2.20;;;1.70;;
17382;SDS011;8809;51.892;8.384;2022-11-15T11:47:58;1.60;;;1.50;;
17382;SDS011;8809;51.892;8.384;2022-11-15T11:50:35;2.45;;;1.50;;
17382;SDS011;8809;51.892;8.384;2022-11-15T11:53:09;1.77;;;1.60;;
17382;SDS011;8809;51.892;8.384;2022-11-15T11:55:42;3.13;;;1.77;;
17382;SDS011;8809;51.892;8.384;2022-11-15T11:58:16;4.70;;;1.90;;
17382;SDS011;8809;51.892;8.384;2022-11-15T12:00:46;2.25;;;1.52;;
17382;SDS011;8809;51.892;8.384;2022-11-15T12:03:19;1.80;;;1.50;;
17382;SDS011;8809;51.892;8.384;2022-11-15T12:05:54;2.22;;;1.63;;
17382;SDS011;8809;51.892;8.384;2022-11-15T12:08:25;2.47;;;1.77;;
17382;SDS011;8809;51.892;8.384;2022-11-15T12:11:00;1.73;;;1.63;;
17382;SDS011;8809;51.892;8.384;2022-11-15T12:13:33;1.55;;;1.45;;
17382;SDS011;8809;51.892;8.384;2022-11-15T12:16:03;1.92;;;1.50;;
17382;SDS011;8809;51.892;8.384;2022-11-15T12:18:37;2.05;;;1.80;;
17382;SDS011;8809;51.892;8.384;2022-11-15T12:21:07;2.00;;;1.40;;
17382;SDS011;8809;51.892;8.384;2022-11-15T12:23:42;2.10;;;1.70;;
17382;SDS011;8809;51.892;8.384;2022-11-15T12:26:15;1.75;;;1.63;;
17382;SDS011;8809;51.892;8.384;2022-11-15T12:28:46;2.03;;;1.67;;
17382;SDS011;8809;51.892;8.384;2022-11-15T12:31:18;2.10;;;1.70;;
17382;SDS011;8809;51.892;8.384;2022-11-15T12:33:51;2.00;;;1.50;;
17382;SDS011;8809;51.892;8.384;2022-11-15T12:36:32;1.80;;;1.58;;
17382;SDS011;8809;51.892;8.384;2022-11-15T12:39:04;1.45;;;1.33;;
17382;SDS011;8809;51.892;8.384;2022-11-15T12:41:32;1.58;;;1.45;;
17382;SDS011;8809;51.892;8.384;2022-11-15T12:44:00;1.50;;;1.33;;
17382;SDS011;8809;51.892;8.384;2022-11-15T12:49:43;3.30;;;1.80;;
17382;SDS011;8809;51.892;8.384;2022-11-15T12:52:13;2.35;;;1.58;;
17382;SDS011;8809;51.892;8.384;2022-11-15T12:55:00;1.90;;;1.48;;
17382;SDS011;8809;51.892;8.384;2022-11-15T12:57:32;1.77;;;1.58;;
17382;SDS011;8809;51.892;8.384;2022-11-15T13:03:17;2.72;;;1.60;;
17382;SDS011;8809;51.892;8.384;2022-11-15T13:06:00;1.60;;;1.50;;
17382;SDS011;8809;51.892;8.384;2022-11-15T13:08:40;2.75;;;1.50;;
17382;SDS011;8809;51.892;8.384;2022-11-15T13:17:16;3.65;;;1.50;;
17382;SDS011;8809;51.892;8.384;2022-11-15T13:20:17;1.80;;;1.60;;
17382;SDS011;8809;51.892;8.384;2022-11-15T13:22:47;2.33;;;1.27;;
17382;SDS011;8809;51.892;8.384;2022-11-15T13:25:27;1.60;;;1.40;;
17382;SDS011;8809;51.892;8.384;2022-11-15T13:28:10;2.25;;;1.40;;
17382;SDS011;8809;51.892;8.384;2022-11-15T13:30:49;1.95;;;1.30;;
17382;SDS011;8809;51.892;8.384;2022-11-15T13:33:18;1.50;;;1.20;;
17382;SDS011;8809;51.892;8.384;2022-11-15T13:35:48;2.40;;;1.40;;
17382;SDS011;8809;51.892;8.384;2022-11-15T13:38:25;2.35;;;1.27;;
17382;SDS011;8809;51.892;8.384;2022-11-15T13:40:55;1.73;;;1.30;;
17382;SDS011;8809;51.892;8.384;2022-11-15T13:43:25;1.42;;;1.10;;
17382;SDS011;8809;51.892;8.384;2022-11-15T13:46:04;1.42;;;1.23;;
17382;SDS011;8809;51.892;8.384;2022-11-15T13:48:33;2.33;;;1.20;;
17382;SDS011;8809;51.892;8.384;2022-11-15T13:51:00;1.98;;;1.25;;
17382;SDS011;8809;51.892;8.384;2022-11-15T13:53:28;1.20;;;1.10;;
17382;SDS011;8809;51.892;8.384;2022-11-15T13:56:01;1.80;;;1.10;;
17382;SDS011;8809;51.892;8.384;2022-11-15T13:58:29;1.60;;;1.20;;
17382;SDS011;8809;51.892;8.384;2022-11-15T14:00:59;2.22;;;1.20;;
17382;SDS011;8809;51.892;8.384;2022-11-15T14:03:28;1.30;;;1.10;;
17382;SDS011;8809;51.892;8.384;2022-11-15T14:06:02;2.08;;;1.17;;
17382;SDS011;8809;51.892;8.384;2022-11-15T14:08:33;1.15;;;0.90;;
17382;SDS011;8809;51.892;8.384;2022-11-15T14:11:09;1.13;;;0.90;;
17382;SDS011;8809;51.892;8.384;2022-11-15T14:13:40;1.23;;;1.10;;
17382;SDS011;8809;51.892;8.384;2022-11-15T14:16:14;1.50;;;1.15;;
17382;SDS011;8809;51.892;8.384;2022-11-15T14:18:45;1.33;;;1.10;;
17382;SDS011;8809;51.892;8.384;2022-11-15T14:21:13;2.55;;;0.90;;
17382;SDS011;8809;51.892;8.384;2022-11-15T14:23:40;1.48;;;1.10;;
17382;SDS011;8809;51.892;8.384;2022-11-15T14:26:25;0.80;;;0.70;;
17382;SDS011;8809;51.892;8.384;2022-11-15T14:28:54;1.25;;;1.00;;
17382;SDS011;8809;51.892;8.384;2022-11-15T14:31:21;0.90;;;0.75;;
17382;SDS011;8809;51.892;8.384;2022-11-15T14:33:48;0.77;;;0.75;;
17382;SDS011;8809;51.892;8.384;2022-11-15T14:36:16;0.95;;;0.80;;
17382;SDS011;8809;51.892;8.384;2022-11-15T14:38:44;1.00;;;0.90;;
17382;SDS011;8809;51.892;8.384;2022-11-15T14:41:20;0.80;;;0.80;;
17382;SDS011;8809;51.892;8.384;2022-11-15T14:43:48;0.85;;;0.70;;
17382;SDS011;8809;51.892;8.384;2022-11-15T14:46:15;1.33;;;0.85;;
17382;SDS011;8809;51.892;8.384;2022-11-15T14:48:43;2.00;;;1.10;;
17382;SDS011;8809;51.892;8.384;2022-11-15T14:51:11;1.42;;;1.00;;
17382;SDS011;8809;51.892;8.384;2022-11-15T14:53:39;0.70;;;0.70;;
17382;SDS011;8809;51.892;8.384;2022-11-15T14:56:06;1.92;;;1.35;;
17382;SDS011;8809;51.892;8.384;2022-11-15T14:58:34;1.05;;;0.93;;
17382;SDS011;8809;51.892;8.384;2022-11-15T15:01:02;0.88;;;0.80;;
17382;SDS011;8809;51.892;8.384;2022-11-15T15:03:36;1.75;;;1.13;;
17382;SDS011;8809;51.892;8.384;2022-11-15T15:06:03;1.30;;;0.80;;
17382;SDS011;8809;51.892;8.384;2022-11-15T15:08:30;1.38;;;0.80;;
17382;SDS011;8809;51.892;8.384;2022-11-15T15:10:57;0.80;;;0.65;;
17382;SDS011;8809;51.892;8.384;2022-11-15T15:13:25;0.80;;;0.80;;
17382;SDS011;8809;51.892;8.384;2022-11-15T15:15:55;1.13;;;0.80;;
17382;SDS011;8809;51.892;8.384;2022-11-15T15:18:22;0.70;;;0.70;;
17382;SDS011;8809;51.892;8.384;2022-11-15T15:20:53;0.73;;;0.70;;
17382;SDS011;8809;51.892;8.384;2022-11-15T15:23:23;1.00;;;0.90;;
17382;SDS011;8809;51.892;8.384;2022-11-15T15:25:52;1.17;;;0.90;;
17382;SDS011;8809;51.892;8.384;2022-11-15T15:28:19;1.10;;;0.95;;
17382;SDS011;8809;51.892;8.384;2022-11-15T15:30:46;1.50;;;1.00;;
17382;SDS011;8809;51.892;8.384;2022-11-15T15:33:14;1.95;;;1.23;;
17382;SDS011;8809;51.892;8.384;2022-11-15T15:35:41;1.45;;;0.95;;
17382;SDS011;8809;51.892;8.384;2022-11-15T15:38:11;1.10;;;1.00;;
17382;SDS011;8809;51.892;8.384;2022-11-15T15:40:38;2.10;;;1.00;;
17382;SDS011;8809;51.892;8.384;2022-11-15T15:43:05;1.55;;;1.02;;
17382;SDS011;8809;51.892;8.384;2022-11-15T15:45:34;1.17;;;1.00;;